Flight Track Log - Related Links

Times and Time Zones

All times are in EDT time to prevent confusion due to time zone crossing. See the AAY230 flight status page for this flight to view local times or setup timezone preferences in your user account.

Time Position Orientation Groundspeed Altitude Reporting Facility
EDT Latitude Longitude Course Direction KTS MPH feet Rate Location/Type
Fri 08:09:48 PM 33.9500 -118.5000 350° North 222 255 2,300  Level Southern California TRACON
Fri 08:10:42 PM 33.9369 -118.5819 259° West 257 296 4,900 2,638 Climbing Los Angeles Center
Fri 08:11:44 PM 33.9533 -118.6656 283° West 278 320 7,400 2,000 Climbing Los Angeles Center
Fri 08:12:45 PM 34.0242 -118.7111 332° Northwest 290 334 9,000 732 Climbing Los Angeles Center
Fri 08:13:47 PM 34.0967 -118.6622 29° Northeast 304 350 8,900 339 Descending Los Angeles Center
Fri 08:14:49 PM 34.1714 -118.6692 356° North 298 343 9,700 1,317 Climbing Los Angeles Center
Fri 08:15:00 PM 34.0584 -118.4339 350° North  Level Estimated
Fri 08:15:50 PM 34.2761 -118.6853 353° North 316 364 11,600  Level Los Angeles Center
Fri 08:16:52 PM 34.3836 -118.7014 353° North 383 441 13,200 1,742 Climbing Los Angeles Center
Fri 08:17:54 PM 34.4956 -118.7208 352° North 406 467 15,200 1,854 Climbing Los Angeles Center
Fri 08:18:55 PM 34.6072 -118.7639 342° North 425 489 17,000 1,707 Climbing Los Angeles Center
Fri 08:19:57 PM 34.7222 -118.8233 337° Northwest 448 516 18,700 1,935 Climbing Los Angeles Center
Fri 08:20:59 PM 34.8386 -118.8786 339° North 450 518 21,000 1,854 Climbing Los Angeles Center
Fri 08:22:00 PM 34.9786 -118.9239 345° North 462 532 22,500 1,610 Climbing Los Angeles Center
Fri 08:23:02 PM 35.1044 -118.9656 345° North 469 540 24,300 1,935 Climbing Los Angeles Center
Fri 08:24:04 PM 35.2292 -119.0083 344° North 468 539 26,500 1,258 Climbing Los Angeles Center
Fri 08:25:06 PM 35.3531 -119.0525 344° North 466 536 26,900 726 Climbing Los Angeles Center
Fri 08:26:08 PM 35.4811 -119.0942 345° North 472 543 28,000 537 Climbing Los Angeles Center
Fri 08:27:09 PM 35.6367 -119.1178 353° North 468 539 28,000 -49 Level Los Angeles Center
Fri 08:28:11 PM 35.7703 -119.1342 354° North 477 549 27,900 -48 Descending Los Angeles Center
Fri 08:29:13 PM 35.9047 -119.1528 354° North 484 557 27,900  Level Los Angeles Center
Fri 08:29:44 PM 35.9831 -119.1617 355° North 486 559 27,900 65 Level Oakland Center
Fri 08:30:45 PM 36.1142 -119.1783 354° North 481 554 28,000  Climbing Oakland Center
Fri 08:31:46 PM 36.2453 -119.1956 354° North 477 549 27,900 -49 Descending Oakland Center
Fri 08:32:47 PM 36.3792 -119.2142 354° North 482 555 27,900 49 Level Oakland Center
Fri 08:33:48 PM 36.5131 -119.2317 354° North 485 558 28,000  Climbing Oakland Center
Fri 08:34:49 PM 36.6450 -119.2494 354° North 478 550 27,900  Descending Oakland Center
Fri 08:35:50 PM 36.7764 -119.2678 354° North 475 547 28,000 49 Climbing Oakland Center
Fri 08:36:51 PM 36.9056 -119.2850 354° North 470 541 28,000 -49 Level Oakland Center
Fri 08:37:53 PM 37.0369 -119.3008 355° North 475 547 27,900  Descending Oakland Center
Fri 08:38:54 PM 37.1942 -119.3233 353° North 476 548 28,000  Climbing Oakland Center
Fri 08:39:55 PM 37.3267 -119.3397 354° North 479 551 27,900  Descending Oakland Center
Fri 08:40:56 PM 37.4564 -119.3572 354° North 472 543 28,000 49 Climbing Oakland Center
Fri 08:41:57 PM 37.5886 -119.3758 354° North 476 548 28,000  Level Oakland Center
Fri 08:42:58 PM 37.7108 -119.3933 354° North 478 550 28,000  Level Oakland Center
Fri 08:43:59 PM 37.8428 -119.4136 353° North 477 549 28,000  Level Oakland Center
Fri 08:45:00 PM 37.9722 -119.4308 354° North 472 543 28,000  Level Oakland Center
Fri 08:46:01 PM 38.1289 -119.4525 354° North 472 543 28,000  Level Oakland Center
Fri 08:47:03 PM 38.2569 -119.4697 354° North 467 537 28,000  Level Oakland Center
Fri 08:48:04 PM 38.3836 -119.4875 354° North 460 529 28,000  Level Oakland Center
Fri 08:49:05 PM 38.5028 -119.5036 354° North 458 527 28,000  Level Oakland Center
Fri 08:50:06 PM 38.6306 -119.5225 353° North 462 532 28,000  Level Oakland Center
Fri 08:51:07 PM 38.7586 -119.5408 354° North 461 531 28,000  Level Oakland Center
Fri 08:52:08 PM 38.8864 -119.5589 354° North 460 529 28,000  Level Oakland Center
Fri 08:53:10 PM 39.0153 -119.5772 354° North 463 533 28,000  Level Oakland Center
Fri 08:54:11 PM 39.1708 -119.6006 353° North 466 536 28,000  Level Oakland Center
Fri 08:55:12 PM 39.3008 -119.6203 353° North 467 537 28,000  Level Oakland Center
Fri 08:56:13 PM 39.4308 -119.6386 354° North 466 536 28,000  Level Oakland Center
Fri 08:57:15 PM 39.5594 -119.6597 353° North 464 534 28,000  Level Oakland Center
Fri 08:58:16 PM 39.6844 -119.6933 348° North 459 528 28,000  Level Oakland Center
Fri 08:59:17 PM 39.8075 -119.7286 348° North 451 519 28,000  Level Oakland Center
Fri 09:00:18 PM 39.9331 -119.7650 347° North 458 527 28,000  Level Oakland Center
Fri 09:01:20 PM 40.0592 -119.8008 348° North 463 533 28,000  Level Oakland Center
Fri 09:02:21 PM 40.1850 -119.8372 348° North 462 532 28,000  Level Oakland Center
Fri 09:03:22 PM 40.3106 -119.8714 348° North 459 528 28,000  Level Oakland Center
Fri 09:04:24 PM 40.4361 -119.9081 347° North 461 531 28,000  Level Oakland Center
Fri 09:05:25 PM 40.5692 -119.9464 348° North 462 532 28,000  Level Oakland Center
Fri 09:06:26 PM 40.6928 -119.9814 348° North 457 526 28,000  Level Oakland Center
Fri 09:07:27 PM 40.8175 -120.0175 348° North 459 528 28,000  Level Oakland Center
Fri 09:08:29 PM 40.9414 -120.0525 348° North 458 527 28,000  Level Oakland Center
Fri 09:09:30 PM 41.0642 -120.0878 348° North 454 522 28,000  Level Oakland Center
Fri 09:10:31 PM 41.2122 -120.1294 348° North 456 525 28,000  Level Oakland Center
Fri 09:11:32 PM 41.3375 -120.1639 348° North 459 528 28,000  Level Oakland Center
Fri 09:12:34 PM 41.4614 -120.1997 348° North 458 527 28,000  Level Oakland Center
Fri 09:13:35 PM 41.5833 -120.2353 348° North 451 519 28,000  Level Oakland Center
Fri 09:14:36 PM 41.7067 -120.2703 348° North 454 522 28,000  Level Oakland Center
Fri 09:15:37 PM 41.8292 -120.3067 348° North 452 520 28,000  Level Oakland Center
Fri 09:16:39 PM 41.9531 -120.3431 348° North 455 524 28,000  Level Oakland Center
Fri 09:17:58 PM 42.1217 -120.3958 347° North 449 517 28,000  Level Seattle Center
Fri 09:18:59 PM 42.2428 -120.4308 348° North 447 514 28,000  Level Seattle Center
Fri 09:20:00 PM 42.3647 -120.4661 348° North 450 518 28,000  Level Seattle Center
Fri 09:21:00 PM 42.4864 -120.5025 348° North 450 518 28,000  Level Seattle Center
Fri 09:22:01 PM 42.6097 -120.5397 347° North 455 524 28,000  Level Seattle Center
Fri 09:23:02 PM 42.7314 -120.5750 348° North 451 519 28,000  Level Seattle Center
Fri 09:24:03 PM 42.8506 -120.6131 347° North 444 511 28,000  Level Seattle Center
Fri 09:25:04 PM 42.9947 -120.6558 348° North 443 510 28,000  Level Seattle Center
Fri 09:26:05 PM 43.1150 -120.6931 347° North 444 511 28,000  Level Seattle Center
Fri 09:27:06 PM 43.2356 -120.7303 347° North 446 513 28,000  Level Seattle Center
Fri 09:28:07 PM 43.3558 -120.7650 348° North 443 510 28,000  Level Seattle Center
Fri 09:29:08 PM 43.4758 -120.8017 347° North 443 510 28,000  Level Seattle Center
Fri 09:30:09 PM 43.5833 -120.8331 348° North 441 507 28,000  Level Seattle Center
Fri 09:31:10 PM 43.7269 -120.8778 347° North 442 509 28,000  Level Seattle Center
Fri 09:32:11 PM 43.8464 -120.9150 347° North 442 509 28,000  Level Seattle Center
Fri 09:33:12 PM 43.9650 -120.9500 348° North 437 503 28,000  Level Seattle Center
Fri 09:34:13 PM 44.0839 -120.9875 347° North 436 502 28,000  Level Seattle Center
Fri 09:35:13 PM 44.2039 -121.0256 347° North 440 506 28,000  Level Seattle Center
Fri 09:36:14 PM 44.3236 -121.0628 347° North 442 509 28,000  Level Seattle Center
Fri 09:37:15 PM 44.4369 -121.0981 347° North 440 506 28,000  Level Seattle Center
Fri 09:38:16 PM 44.5531 -121.1358 347° North 435 501 28,000  Level Seattle Center
Fri 09:39:17 PM 44.6775 -121.1756 347° North 433 498 28,000  Level Seattle Center
Fri 09:40:18 PM 44.7953 -121.2131 347° North 433 498 28,000  Level Seattle Center
Fri 09:41:19 PM 44.9136 -121.2508 347° North 435 501 28,000  Level Seattle Center
Fri 09:42:20 PM 45.0325 -121.2892 347° North 435 501 28,000  Level Seattle Center
Fri 09:43:21 PM 45.1494 -121.3267 347° North 433 498 28,000  Level Seattle Center
Fri 09:44:22 PM 45.2672 -121.3642 347° North 433 498 28,000  Level Seattle Center
Fri 09:45:23 PM 45.3836 -121.4036 347° North 432 497 28,000  Level Seattle Center
Fri 09:46:24 PM 45.5014 -121.4417 347° North 432 497 28,000  Level Seattle Center
Fri 09:47:24 PM 45.6422 -121.4858 348° North 433 498 28,000  Level Seattle Center
Fri 09:48:25 PM 45.7589 -121.5244 347° North 430 495 28,000  Level Seattle Center
Fri 09:49:26 PM 45.8767 -121.5617 348° North 431 496 28,000  Level Seattle Center
Fri 09:50:27 PM 45.9925 -121.6019 346° North 430 495 28,000  Level Seattle Center
Fri 09:51:28 PM 46.1094 -121.6408 347° North 431 496 28,000  Level Seattle Center
Fri 09:52:29 PM 46.2247 -121.6781 347° North 430 495 28,000  Level Seattle Center
Fri 09:53:30 PM 46.3383 -121.7186 346° North 427 491 28,000  Level Seattle Center
Fri 09:54:31 PM 46.4542 -121.7567 347° North 428 493 28,000  Level Seattle Center
Fri 09:55:32 PM 46.5672 -121.7964 346° North 424 488 28,000  Level Seattle Center
Fri 09:56:32 PM 46.6819 -121.8347 347° North 426 490 28,000  Level Seattle Center
Fri 09:57:33 PM 46.8183 -121.8814 347° North 424 488 28,000  Level Seattle Center
Fri 09:58:34 PM 46.9331 -121.9214 347° North 428 493 28,000  Level Seattle Center
Fri 09:59:35 PM 47.0453 -121.9625 346° North 422 486 28,000  Level Seattle Center
Fri 10:00:36 PM 47.1592 -122.0006 347° North 425 489 28,000  Level Seattle Center
Fri 10:01:37 PM 47.2725 -122.0392 347° North 424 488 28,000  Level Seattle Center
Fri 10:02:38 PM 47.3842 -122.0803 346° North 423 487 28,000 -639 Level Seattle Center
Fri 10:03:39 PM 47.4950 -122.1194 347° North 417 480 26,700 -1,785 Descending Seattle Center
Fri 10:04:39 PM 47.6211 -122.1642 347° North 401 461 24,400 -2,132 Descending Seattle Center
Fri 10:05:40 PM 47.7208 -122.1986 347° North 382 440 22,400 -1,918 Descending Seattle Center
Fri 10:06:41 PM 47.8172 -122.2333 346° North 368 423 20,500 -1,964 Descending Seattle Center
Fri 10:07:30 PM 47.8975 -122.2639 346° North 352 405 18,800 -2,127 Descending Seattle Center
Fri 10:08:00 PM 47.9422 -122.2811 346° North 345 397 17,700 -1,808 Descending Seattle Center
Fri 10:08:43 PM 48.0019 -122.2978 349° North 343 395 16,600 -1,731 Descending Seattle Center
Fri 10:09:44 PM 48.0914 -122.3239 349° North 331 381 14,700 -2,115 Descending Seattle Center
Fri 10:10:45 PM 48.1967 -122.3544 349° North 323 372 12,300 -1,721 Descending Seattle Center
Fri 10:11:46 PM 48.2778 -122.3814 348° North 302 348 11,200 -1,426 Descending Seattle Center
Fri 10:12:47 PM 48.3539 -122.4064 348° North 284 327 9,400 -1,623 Descending Seattle Center
Fri 10:13:48 PM 48.4281 -122.4319 347° North 277 319 7,900 -1,426 Descending Seattle Center
Fri 10:14:49 PM 48.4947 -122.4803 334° Northwest 269 310 6,500 -1,475 Descending Seattle Center
Fri 10:15:50 PM 48.5581 -122.5239 336° Northwest 260 299 4,900 -1,377 Descending Seattle Center
Fri 10:16:51 PM 48.6178 -122.5394 350° North 238 274 3,700 -1,180 Descending Seattle Center
Fri 10:17:52 PM 48.6731 -122.5358 North 216 249 2,500 -1,180 Descending Seattle Center

Login

Don't have an account? Register now (free) for customized features, flight alerts, and more!